Time;durP1;ratioP1;P1;durP2;ratioP2;P2;SDS_P1;SDS_P2;PMS_P1;PMS_P2;Temp;Humidity;BMP_temperature;BMP_pressure;BME280_temperature;BME280_humidity;BME280_pressure;Samples;Min_cycle;Max_cycle;Signal;HPM_P1;HPM_P2
2022/01/22 00:00:18;;;;;;;4.05;1.10;;;;;;;25.79;27.55;97973.25;4917504;29;20387;-56
2022/01/22 00:02:43;;;;;;;1.13;0.70;;;;;;;25.80;27.61;97972.31;4898427;29;20036;-57
2022/01/22 00:05:09;;;;;;;0.82;0.52;;;;;;;25.80;27.49;97969.69;4891184;29;20032;-56
2022/01/22 00:07:34;;;;;;;4.40;0.98;;;;;;;25.81;27.56;97970.53;4891609;29;20549;-55
2022/01/22 00:10:05;;;;;;;2.75;0.82;;;;;;;25.81;27.72;97971.41;4893962;29;20066;-57
2022/01/22 00:15:06;;;;;;;1.98;0.93;;;;;;;25.82;27.56;97965.22;4888611;29;23624;-58
2022/01/22 00:17:32;;;;;;;1.92;0.75;;;;;;;25.82;27.50;97957.34;4889869;29;20051;-58
2022/01/22 00:19:57;;;;;;;2.30;0.82;;;;;;;25.82;27.61;97957.34;4891889;29;20119;-56
2022/01/22 00:22:26;;;;;;;3.83;0.90;;;;;;;25.82;27.56;97952.09;4892439;29;20103;-59
2022/01/22 00:24:56;;;;;;;0.82;0.57;;;;;;;25.83;27.67;97959.06;4905920;29;20032;-56
2022/01/22 00:27:22;;;;;;;1.23;0.63;;;;;;;25.83;27.71;97952.97;4889265;29;20020;-59
2022/01/22 00:29:47;;;;;;;1.67;0.85;;;;;;;25.85;27.62;97955.56;4892552;28;20099;-58
2022/01/22 00:32:13;;;;;;;1.45;0.70;;;;;;;25.84;27.56;97957.31;4890811;29;20083;-58
2022/01/22 00:34:38;;;;;;;0.70;0.60;;;;;;;25.83;27.69;97959.06;4889836;29;20117;-58
2022/01/22 00:37:04;;;;;;;1.25;0.70;;;;;;;25.83;27.55;97964.31;4887748;28;20974;-57
2022/01/22 00:39:30;;;;;;;1.17;0.70;;;;;;;25.84;27.49;97965.19;4891452;29;20032;-61
2022/01/22 00:41:55;;;;;;;1.67;0.85;;;;;;;25.84;27.57;97954.69;4890097;29;20474;-58
2022/01/22 00:44:21;;;;;;;3.33;0.70;;;;;;;25.85;27.57;97956.38;4888088;29;20114;-58
2022/01/22 00:46:46;;;;;;;3.90;0.70;;;;;;;25.84;27.68;97949.44;4904685;29;20075;-56
2022/01/22 00:49:11;;;;;;;1.70;0.50;;;;;;;25.85;27.59;97955.56;4894064;29;20043;-58
2022/01/22 00:51:37;;;;;;;1.55;0.75;;;;;;;25.85;27.83;97960.81;4888533;29;20036;-57
2022/01/22 00:54:02;;;;;;;2.50;0.93;;;;;;;25.85;27.52;97955.56;4891373;29;20027;-57
2022/01/22 00:56:28;;;;;;;0.93;0.63;;;;;;;25.83;27.85;97948.56;4890559;29;20028;-58
2022/01/22 00:58:53;;;;;;;1.75;0.90;;;;;;;25.85;27.56;97951.13;4892122;29;20031;-58
2022/01/22 01:01:19;;;;;;;2.05;0.70;;;;;;;25.85;27.54;97950.28;4897715;29;20019;-57
2022/01/22 01:03:44;;;;;;;1.67;0.40;;;;;;;25.83;27.60;97953.81;4899329;29;20043;-57
2022/01/22 01:06:10;;;;;;;0.80;0.57;;;;;;;25.83;27.67;97952.97;4896669;29;20065;-58
2022/01/22 01:08:36;;;;;;;1.15;0.50;;;;;;;25.82;27.65;97949.47;4889168;29;20028;-57
2022/01/22 01:11:02;;;;;;;1.55;0.70;;;;;;;25.83;27.67;97947.72;4897633;29;20091;-57
2022/01/22 01:13:31;;;;;;;0.43;0.40;;;;;;;25.82;27.75;97946.84;4893875;29;20188;-57
2022/01/22 01:16:13;;;;;;;0.50;0.50;;;;;;;25.81;27.83;97953.03;4896600;29;20138;-57
2022/01/22 01:32:20;;;;;;;2.13;0.60;;;;;;;25.76;27.64;97954.94;4896989;29;20035;-54
2022/01/22 01:34:47;;;;;;;8.90;0.77;;;;;;;25.74;27.66;97959.38;4894651;29;20080;-58
2022/01/22 01:37:15;;;;;;;0.93;0.50;;;;;;;25.73;27.57;97957.69;4893919;29;20031;-57
2022/01/22 01:39:41;;;;;;;1.50;0.60;;;;;;;25.74;27.75;97962.00;4897331;29;20546;-58
2022/01/22 01:42:37;;;;;;;2.30;0.85;;;;;;;25.74;27.77;97954.13;4891967;29;20122;-58
2022/01/22 01:44:53;;;;;;;1.17;0.65;;;;;;;25.75;27.76;97960.25;4891019;29;21219;-55
2022/01/22 01:47:19;;;;;;;0.77;0.60;;;;;;;25.74;27.76;97969.88;4885895;29;20127;-58
2022/01/22 01:49:45;;;;;;;0.73;0.40;;;;;;;25.75;27.83;97976.00;4888876;29;20043;-54
2022/01/22 01:52:16;;;;;;;1.02;0.50;;;;;;;25.74;27.85;97977.75;4888526;29;20062;-54
2022/01/22 01:59:51;;;;;;;1.23;0.60;;;;;;;25.74;27.90;97980.38;4899762;29;20038;-57
2022/01/22 02:02:17;;;;;;;1.13;0.60;;;;;;;25.74;27.74;97987.44;4899027;29;20040;-58
2022/01/22 02:04:42;;;;;;;1.02;0.70;;;;;;;25.74;27.92;97983.00;4894458;29;20107;-58
2022/01/22 02:07:08;;;;;;;4.78;0.60;;;;;;;25.74;27.78;97985.63;4893672;29;20039;-58
2022/01/22 02:09:34;;;;;;;1.85;0.60;;;;;;;25.73;27.93;97986.56;4892761;29;20062;-57
2022/01/22 02:12:05;;;;;;;0.73;0.60;;;;;;;25.73;27.79;97978.69;4895303;29;20036;-57
2022/01/22 02:25:22;;;;;;;1.27;0.50;;;;;;;25.72;27.78;97971.72;4890692;29;20050;-58
2022/01/22 02:27:48;;;;;;;1.00;0.45;;;;;;;25.72;27.85;97966.47;4896448;29;20040;-55
2022/01/22 02:30:22;;;;;;;1.50;0.70;;;;;;;25.71;27.90;97964.75;4897210;29;20565;-57
2022/01/22 02:33:23;;;;;;;1.20;0.63;;;;;;;25.70;27.92;97963.03;4898480;29;20118;-58
2022/01/22 02:35:57;;;;;;;1.27;0.50;;;;;;;25.71;27.77;97951.63;4894822;29;20051;-54
2022/01/22 02:38:51;;;;;;;2.78;0.75;;;;;;;25.70;27.92;97963.88;4900795;29;20024;-58
2022/01/22 02:41:13;;;;;;;1.13;0.65;;;;;;;25.71;27.89;97962.13;4900964;29;20075;-58
2022/01/22 02:43:39;;;;;;;1.48;0.60;;;;;;;25.71;27.93;97962.13;4895407;29;20028;-58
2022/01/22 02:46:04;;;;;;;2.15;0.82;;;;;;;25.70;27.90;97952.53;4899392;29;20032;-58
2022/01/22 02:48:30;;;;;;;1.67;0.55;;;;;;;25.70;27.63;97957.78;4900383;29;20111;-58
2022/01/22 02:50:55;;;;;;;1.45;0.68;;;;;;;25.70;27.96;97957.78;4901440;29;20035;-55
2022/01/22 02:53:21;;;;;;;1.48;0.68;;;;;;;25.70;27.88;97955.16;4904117;29;20028;-58
2022/01/22 02:55:46;;;;;;;1.83;0.57;;;;;;;25.69;27.81;97958.69;4895956;28;20111;-57
2022/01/22 02:58:13;;;;;;;1.55;0.60;;;;;;;25.70;27.86;97965.66;4904419;29;20036;-55
2022/01/22 03:00:38;;;;;;;0.65;0.50;;;;;;;25.68;27.80;97955.22;4918044;29;20556;-55
2022/01/22 03:03:04;;;;;;;1.77;1.00;;;;;;;25.70;27.88;97957.78;4911610;28;20047;-58
2022/01/22 03:05:29;;;;;;;0.75;0.47;;;;;;;25.69;27.88;97956.94;4900974;29;20577;-57
2022/01/22 03:07:57;;;;;;;1.52;0.55;;;;;;;25.70;27.91;97963.03;4899936;29;20127;-57
2022/01/22 03:10:25;;;;;;;0.73;0.30;;;;;;;25.69;27.70;97961.31;4904541;29;20034;-55
2022/01/22 03:13:11;;;;;;;1.17;0.50;;;;;;;25.69;27.90;97963.94;4896532;29;20032;-58
2022/01/22 03:18:39;;;;;;;1.52;0.60;;;;;;;25.68;27.78;97968.34;4872727;29;20043;-57
2022/01/22 03:29:31;;;;;;;4.03;1.50;;;;;;;25.64;27.50;97958.88;4890517;28;20070;-58
2022/01/22 03:31:57;;;;;;;1.27;0.70;;;;;;;25.62;27.53;97955.41;4866756;29;23874;-58
2022/01/22 03:34:22;;;;;;;1.35;0.50;;;;;;;25.60;27.73;97956.38;4902287;29;20024;-58
2022/01/22 03:36:47;;;;;;;0.75;0.45;;;;;;;25.60;27.70;97949.38;4908369;29;20486;-58
2022/01/22 03:39:13;;;;;;;1.48;0.47;;;;;;;25.61;27.73;97942.34;4891983;29;20115;-58
2022/01/22 03:41:38;;;;;;;0.95;0.50;;;;;;;25.60;27.74;97943.25;4894374;29;20795;-57
2022/01/22 03:44:05;;;;;;;2.20;0.40;;;;;;;25.59;27.87;97941.53;4892144;29;20055;-56
2022/01/22 03:46:30;;;;;;;0.90;0.60;;;;;;;25.60;27.86;97940.63;4889985;29;20059;-56
2022/01/22 03:48:56;;;;;;;0.82;0.50;;;;;;;25.60;27.79;97940.63;4912892;28;20129;-57
2022/01/22 03:51:21;;;;;;;0.80;0.43;;;;;;;25.60;27.98;97945.88;4894970;29;20032;-58
2022/01/22 03:53:47;;;;;;;1.30;0.63;;;;;;;25.61;27.81;97944.97;4896203;29;20688;-57
2022/01/22 03:56:12;;;;;;;1.30;0.57;;;;;;;25.61;27.93;97945.84;4893338;29;20036;-58
2022/01/22 03:58:40;;;;;;;0.70;0.40;;;;;;;25.62;27.86;97944.06;4893938;29;20027;-59
2022/01/22 04:03:52;;;;;;;0.90;0.57;;;;;;;25.61;27.85;97937.97;4911056;29;20070;-58
2022/01/22 04:09:06;;;;;;;1.25;0.40;;;;;;;25.61;27.89;97943.22;4900148;29;20928;-57
2022/01/22 04:11:35;;;;;;;0.60;0.50;;;;;;;25.61;27.84;97942.34;4914295;28;21229;-57
2022/01/22 04:14:03;;;;;;;0.52;0.28;;;;;;;25.61;27.82;97937.97;4897046;29;20071;-56
2022/01/22 04:16:29;;;;;;;2.35;0.68;;;;;;;25.61;27.83;97935.34;4899163;29;20050;-58
2022/01/22 04:27:11;;;;;;;0.75;0.40;;;;;;;25.60;27.92;97930.13;4895226;29;20067;-58
2022/01/22 04:29:36;;;;;;;0.70;0.30;;;;;;;25.61;27.92;97931.84;4888724;29;20790;-58
2022/01/22 04:32:02;;;;;;;0.45;0.45;;;;;;;25.61;27.83;97932.72;4915769;29;20102;-53
2022/01/22 04:34:27;;;;;;;0.80;0.43;;;;;;;25.61;27.77;97937.09;4892084;29;20652;-56
2022/01/22 04:36:53;;;;;;;0.65;0.43;;;;;;;25.61;27.75;97939.72;4896649;29;20649;-57
2022/01/22 04:39:21;;;;;;;1.60;0.50;;;;;;;25.60;27.81;97936.25;4893866;29;20493;-57
2022/01/22 04:41:46;;;;;;;1.08;0.40;;;;;;;25.61;27.82;97937.09;4896062;29;20634;-58
2022/01/22 04:44:12;;;;;;;3.88;0.40;;;;;;;25.61;27.87;97937.09;4900105;29;20051;-58
2022/01/22 04:47:14;;;;;;;0.70;0.40;;;;;;;25.61;27.81;97924.84;4897723;29;20055;-57
2022/01/22 04:57:17;;;;;;;0.50;0.35;;;;;;;25.61;27.79;97921.34;4896411;29;20127;-58
2022/01/22 04:59:43;;;;;;;0.68;0.40;;;;;;;25.62;27.83;97929.16;4895717;29;20039;-56
2022/01/22 05:02:09;;;;;;;0.30;0.30;;;;;;;25.62;27.81;97930.94;4898447;29;20040;-57
2022/01/22 05:04:34;;;;;;;0.93;0.38;;;;;;;25.61;27.87;97931.84;4891260;29;20533;-58
2022/01/22 05:07:00;;;;;;;1.48;0.52;;;;;;;25.61;27.85;97929.22;4901847;29;20047;-58
2022/01/22 05:09:25;;;;;;;0.40;0.40;;;;;;;25.62;27.89;97938.81;4895723;29;20028;-57
2022/01/22 05:11:51;;;;;;;0.88;0.30;;;;;;;25.62;27.91;97938.81;4904474;29;20027;-54
2022/01/22 05:14:16;;;;;;;0.50;0.50;;;;;;;25.59;27.97;97931.06;4897886;29;20062;-58
2022/01/22 05:16:41;;;;;;;0.70;0.30;;;;;;;25.61;27.93;97932.72;4912254;29;20031;-57
2022/01/22 05:19:17;;;;;;;0.88;0.50;;;;;;;25.62;27.87;97933.56;4889688;29;20032;-58
2022/01/22 05:21:44;;;;;;;0.77;0.52;;;;;;;25.60;27.88;97936.25;4889801;29;20036;-56
2022/01/22 05:24:14;;;;;;;1.58;0.70;;;;;;;25.61;27.88;97937.09;4888683;29;20062;-57
2022/01/22 05:37:27;;;;;;;1.70;0.68;;;;;;;25.60;27.85;97951.13;4891690;29;20046;-58
2022/01/22 05:39:52;;;;;;;0.50;0.50;;;;;;;25.60;27.82;97964.25;4897082;29;20035;-57
2022/01/22 05:42:17;;;;;;;0.85;0.50;;;;;;;25.59;27.98;97965.16;4892278;29;20287;-57
2022/01/22 05:44:43;;;;;;;1.33;0.70;;;;;;;25.58;27.94;97966.94;4889315;29;20039;-57
2022/01/22 05:47:08;;;;;;;1.13;0.70;;;;;;;25.59;27.97;97970.41;4891918;29;20040;-58
2022/01/22 05:49:38;;;;;;;7.25;2.40;;;;;;;25.56;27.89;97982.72;4895435;29;20028;-55
2022/01/22 05:52:05;;;;;;;3.33;1.15;;;;;;;25.56;27.67;97981.88;4901793;29;20463;-58
2022/01/22 05:59:41;;;;;;;3.78;0.85;;;;;;;25.54;28.14;97976.66;4895999;29;20103;-57
2022/01/22 06:02:08;;;;;;;1.27;0.85;;;;;;;25.53;27.87;97967.06;4902991;29;20040;-57
2022/01/22 06:04:33;;;;;;;3.88;0.90;;;;;;;25.54;27.96;97968.78;4897447;29;20047;-58
2022/01/22 06:06:59;;;;;;;1.48;0.70;;;;;;;25.53;27.86;97972.31;4907785;29;20036;-57
2022/01/22 06:09:25;;;;;;;0.90;0.60;;;;;;;25.54;28.01;97979.28;4901504;29;20059;-58
2022/01/22 06:14:19;;;;;;;2.25;0.85;;;;;;;25.55;27.96;97975.72;4902050;29;20032;-58
2022/01/22 06:16:44;;;;;;;0.85;0.70;;;;;;;25.56;27.88;97981.88;4901157;29;20035;-58
2022/01/22 06:19:10;;;;;;;0.77;0.60;;;;;;;25.57;27.88;97984.47;4897268;29;20867;-57
2022/01/22 06:21:35;;;;;;;2.60;0.80;;;;;;;25.57;28.08;97981.84;4903772;29;20844;-57
2022/01/22 06:24:01;;;;;;;0.68;0.47;;;;;;;25.57;28.04;97983.59;4901291;29;20620;-57
2022/01/22 06:26:26;;;;;;;1.17;0.90;;;;;;;25.59;27.96;97991.41;4897548;29;20054;-57
2022/01/22 06:28:51;;;;;;;2.13;0.80;;;;;;;25.58;28.13;97995.78;4900923;29;20058;-58
2022/01/22 06:31:17;;;;;;;0.55;0.52;;;;;;;25.59;27.89;97996.66;4895095;28;20032;-57
2022/01/22 06:33:42;;;;;;;1.02;0.50;;;;;;;25.59;28.04;97999.28;4897415;29;20028;-58
2022/01/22 06:36:08;;;;;;;1.30;0.70;;;;;;;25.59;27.91;97999.28;4898851;29;20072;-58
2022/01/22 06:38:34;;;;;;;0.93;0.60;;;;;;;25.59;27.86;98008.00;4895546;29;20083;-55
2022/01/22 06:43:44;;;;;;;1.45;0.55;;;;;;;25.61;28.10;98010.59;4898977;29;20185;-58
2022/01/22 06:46:09;;;;;;;1.50;0.63;;;;;;;25.59;27.99;98013.25;4898296;29;20027;-57
2022/01/22 06:48:35;;;;;;;2.67;0.65;;;;;;;25.61;27.96;98018.47;4903740;29;20042;-56
2022/01/22 06:51:01;;;;;;;1.08;0.70;;;;;;;25.60;28.00;98007.13;4899198;29;20039;-56
2022/01/22 06:53:27;;;;;;;1.35;0.70;;;;;;;25.61;28.01;98010.59;4896636;29;20094;-58
2022/01/22 06:55:58;;;;;;;1.52;0.60;;;;;;;25.62;28.03;98009.69;4910773;29;20027;-57
2022/01/22 06:58:24;;;;;;;2.28;0.70;;;;;;;25.62;27.98;98020.19;4895249;29;20043;-58
2022/01/22 07:00:49;;;;;;;1.17;0.82;;;;;;;25.63;28.08;98019.28;4898197;29;20043;-53
2022/01/22 07:03:15;;;;;;;0.98;0.70;;;;;;;25.61;27.86;98021.97;4896412;29;20032;-58
2022/01/22 07:05:40;;;;;;;1.67;0.60;;;;;;;25.64;27.95;98023.63;4899279;29;20043;-57
2022/01/22 07:08:06;;;;;;;1.50;0.50;;;;;;;25.64;28.09;98015.75;4896515;29;20035;-57
2022/01/22 07:10:31;;;;;;;1.13;0.60;;;;;;;25.64;28.08;98021.00;4895151;29;20032;-57
2022/01/22 07:12:57;;;;;;;0.68;0.50;;;;;;;25.65;27.87;98020.06;4912577;29;20038;-56
2022/01/22 07:15:22;;;;;;;1.00;0.60;;;;;;;25.66;27.91;98017.41;4893186;29;20858;-57
2022/01/22 07:17:48;;;;;;;1.85;0.70;;;;;;;25.65;27.95;98018.31;4886189;29;20040;-57
2022/01/22 07:20:14;;;;;;;0.40;0.40;;;;;;;25.65;27.89;98013.06;4892522;29;20616;-58
2022/01/22 07:25:14;;;;;;;1.15;0.40;;;;;;;25.67;27.90;98010.41;4899108;29;20031;-55
2022/01/22 07:27:40;;;;;;;0.60;0.60;;;;;;;25.67;28.12;98006.00;4898430;28;20031;-57
2022/01/22 07:30:06;;;;;;;0.70;0.60;;;;;;;25.68;27.95;98012.97;4897369;29;20055;-56
2022/01/22 07:32:36;;;;;;;0.68;0.60;;;;;;;25.69;28.00;98013.81;4888682;29;20036;-58
2022/01/22 07:35:04;;;;;;;2.35;0.75;;;;;;;25.69;27.89;98014.69;4900303;29;20023;-57
2022/01/22 07:37:30;;;;;;;2.78;0.60;;;;;;;25.69;28.04;98025.19;4897554;29;20043;-57
2022/01/22 07:39:55;;;;;;;3.03;0.70;;;;;;;25.69;27.98;98016.44;4902138;29;20711;-57
2022/01/22 07:42:21;;;;;;;4.45;0.80;;;;;;;25.69;28.05;98022.56;4895193;29;20032;-58
2022/01/22 07:44:46;;;;;;;5.60;1.20;;;;;;;25.69;27.94;98016.44;4900934;29;21090;-57
2022/01/22 07:47:12;;;;;;;14.13;1.95;;;;;;;25.68;27.87;98010.34;4895785;29;20040;-57
2022/01/22 07:49:37;;;;;;;9.45;2.33;;;;;;;25.69;28.01;98008.56;4903728;29;20513;-57
2022/01/22 07:52:03;;;;;;;7.70;2.88;;;;;;;25.68;27.98;98012.09;4917112;29;20036;-56
2022/01/22 07:54:29;;;;;;;5.80;2.60;;;;;;;25.68;28.07;98027.84;4900358;28;20028;-58
2022/01/22 07:56:55;;;;;;;6.43;2.45;;;;;;;25.68;27.89;98022.63;4898138;29;20191;-59
2022/01/22 07:59:20;;;;;;;11.95;3.25;;;;;;;25.68;28.06;98028.72;4897252;29;20739;-58
2022/01/22 08:01:46;;;;;;;8.65;2.97;;;;;;;25.68;27.95;98017.38;4899747;29;20269;-57
2022/01/22 08:04:11;;;;;;;8.07;2.65;;;;;;;25.69;27.98;98021.69;4905801;29;20256;-59
2022/01/22 08:06:36;;;;;;;5.82;2.72;;;;;;;25.70;27.89;98031.28;4904270;29;20054;-56
2022/01/22 08:09:02;;;;;;;9.85;2.78;;;;;;;25.68;28.01;98033.13;4902888;29;20254;-56
2022/01/22 08:11:27;;;;;;;9.68;3.03;;;;;;;25.67;28.00;98032.25;4902866;29;20095;-57
2022/01/22 08:13:53;;;;;;;8.30;3.05;;;;;;;25.67;28.08;98021.75;4895625;28;21996;-55
2022/01/22 08:16:18;;;;;;;9.63;2.80;;;;;;;25.67;27.91;98011.25;4898395;29;20039;-56
2022/01/22 08:18:44;;;;;;;5.72;2.47;;;;;;;25.68;27.98;98022.63;4908383;28;20036;-55
2022/01/22 08:21:09;;;;;;;13.82;3.10;;;;;;;25.68;28.02;98022.63;4901725;29;20039;-60
2022/01/22 08:23:35;;;;;;;7.38;2.83;;;;;;;25.69;28.17;98024.31;4904237;29;20786;-56
2022/01/22 08:26:04;;;;;;;10.27;2.72;;;;;;;25.69;28.09;98030.44;4902449;29;20800;-55
2022/01/22 08:31:24;;;;;;;4.55;2.25;;;;;;;25.70;28.17;98028.66;4901257;29;20102;-57
2022/01/22 08:36:34;;;;;;;8.38;2.55;;;;;;;25.64;28.09;98021.00;4901718;29;20083;-56
2022/01/22 08:38:59;;;;;;;8.05;2.60;;;;;;;25.69;28.03;98022.56;4893514;29;20043;-54
2022/01/22 08:41:24;;;;;;;8.18;2.40;;;;;;;25.69;28.16;98024.31;4918780;29;20103;-56
2022/01/22 08:43:50;;;;;;;6.03;2.45;;;;;;;25.69;28.07;98034.81;4899594;29;20020;-54
2022/01/22 08:46:15;;;;;;;6.88;2.50;;;;;;;25.68;28.24;98033.13;4894990;29;20046;-58
2022/01/22 08:48:41;;;;;;;4.72;2.13;;;;;;;25.69;28.23;98040.06;4913235;29;20027;-57
2022/01/22 08:51:07;;;;;;;6.80;2.42;;;;;;;25.70;28.16;98032.16;4904802;29;20047;-56
2022/01/22 08:53:32;;;;;;;4.28;1.98;;;;;;;25.71;28.31;98043.53;4906462;29;20015;-56
2022/01/22 08:56:00;;;;;;;6.93;2.47;;;;;;;25.72;28.37;98044.38;4900630;29;20692;-55
2022/01/22 08:58:25;;;;;;;6.45;2.30;;;;;;;25.73;28.31;98046.94;4900483;29;20035;-56
2022/01/22 09:00:51;;;;;;;5.53;2.35;;;;;;;25.74;28.31;98059.16;4904377;29;20032;-57
2022/01/22 09:03:19;;;;;;;4.88;1.92;;;;;;;25.75;28.32;98060.88;4903087;29;20094;-55
2022/01/22 09:05:46;;;;;;;6.75;2.17;;;;;;;25.76;28.31;98061.72;4901960;29;20039;-56
2022/01/22 09:08:11;;;;;;;6.53;2.15;;;;;;;25.77;28.38;98066.94;4893841;29;20092;-57
2022/01/22 09:10:37;;;;;;;5.85;2.03;;;;;;;25.78;28.42;98070.44;4911281;28;20134;-55
2022/01/22 09:13:02;;;;;;;4.05;2.03;;;;;;;25.79;28.22;98075.63;4898385;29;20064;-57
2022/01/22 09:15:28;;;;;;;5.45;1.90;;;;;;;25.79;28.22;98066.88;4902206;29;20060;-54
2022/01/22 09:17:53;;;;;;;4.70;1.88;;;;;;;25.78;28.20;98071.28;4909709;29;20028;-57
2022/01/22 09:20:42;;;;;;;5.35;1.90;;;;;;;25.78;28.20;98073.06;4897535;29;20937;-57
2022/01/22 09:23:05;;;;;;;4.47;2.10;;;;;;;25.77;28.22;98074.81;4894642;29;20115;-57
2022/01/22 09:25:30;;;;;;;3.75;2.00;;;;;;;25.76;28.38;98078.34;4897379;29;20024;-58
2022/01/22 09:27:56;;;;;;;4.43;2.08;;;;;;;25.78;28.27;98084.41;4894020;29;20102;-55
2022/01/22 09:30:21;;;;;;;4.32;1.90;;;;;;;25.78;28.42;98078.31;4897333;29;20911;-58
2022/01/22 09:32:47;;;;;;;4.25;1.83;;;;;;;25.78;28.32;98068.66;4899779;29;20031;-57
2022/01/22 09:35:12;;;;;;;6.30;2.22;;;;;;;25.79;28.31;98062.50;4900003;29;20490;-55
2022/01/22 09:37:38;;;;;;;4.90;1.90;;;;;;;25.80;28.46;98069.47;4899154;29;20209;-55
2022/01/22 09:40:04;;;;;;;4.70;1.85;;;;;;;25.81;28.33;98079.06;4898242;29;20028;-56
2022/01/22 09:42:29;;;;;;;5.22;2.05;;;;;;;25.82;28.49;98075.53;4898742;29;20100;-57
2022/01/22 09:44:55;;;;;;;5.45;2.00;;;;;;;25.83;28.37;98087.72;4895999;29;20035;-55
2022/01/22 09:47:20;;;;;;;4.70;2.35;;;;;;;25.85;28.41;98084.22;4891245;29;20043;-56
2022/01/22 09:49:46;;;;;;;14.38;3.15;;;;;;;25.82;27.25;98087.81;4894422;29;20464;-58
2022/01/22 09:52:12;;;;;;;15.15;3.47;;;;;;;25.71;24.87;98090.78;4894699;29;20043;-60
2022/01/22 09:54:38;;;;;;;7.70;3.17;;;;;;;25.54;24.80;98097.38;4896838;29;21030;-58
2022/01/22 09:57:04;;;;;;;8.00;2.70;;;;;;;25.42;24.68;98088.13;4903617;28;20131;-56
2022/01/22 09:59:30;;;;;;;5.07;2.15;;;;;;;25.35;25.12;98093.63;4885016;29;20613;-57
2022/01/22 10:02:13;;;;;;;6.15;2.33;;;;;;;25.30;25.67;98092.00;4888006;29;20128;-56
2022/01/22 10:04:40;;;;;;;7.15;2.72;;;;;;;25.28;25.74;98090.34;4902538;28;20062;-57
2022/01/22 10:07:10;;;;;;;10.20;2.40;;;;;;;25.28;26.02;98100.81;4899886;28;21034;-56
2022/01/22 10:09:46;;;;;;;4.10;2.17;;;;;;;25.28;26.26;98091.16;4884495;29;23157;-55
2022/01/22 10:12:20;;;;;;;4.95;2.40;;;;;;;25.30;26.39;98097.25;4895237;29;20035;-56
2022/01/22 10:15:14;;;;;;;5.18;2.28;;;;;;;25.31;26.24;98101.59;4894130;29;20023;-56
2022/01/22 10:17:55;;;;;;;11.48;2.00;;;;;;;25.34;26.45;98102.38;4899513;29;20036;-56
2022/01/22 10:20:20;;;;;;;7.05;2.15;;;;;;;25.36;26.57;98100.59;4896072;29;20036;-55
2022/01/22 10:22:46;;;;;;;6.97;1.83;;;;;;;25.36;26.62;98101.44;4899450;29;21303;-56
2022/01/22 10:25:31;;;;;;;5.53;2.00;;;;;;;25.38;26.66;98099.63;4893854;29;20032;-54
2022/01/22 10:28:01;;;;;;;4.72;1.90;;;;;;;25.41;26.71;98114.41;4909889;28;20035;-57
2022/01/22 10:30:38;;;;;;;15.85;2.60;;;;;;;25.43;26.79;98096.84;4906713;29;20514;-54
2022/01/22 10:33:39;;;;;;;11.88;2.70;;;;;;;25.44;26.91;98093.34;4907555;29;20034;-56
2022/01/22 10:36:19;;;;;;;9.25;2.88;;;;;;;25.47;27.04;98098.47;4881183;29;20036;-56
2022/01/22 10:38:52;;;;;;;12.77;2.88;;;;;;;25.47;27.02;98098.47;4896972;29;20414;-55
2022/01/22 10:41:31;;;;;;;13.10;3.15;;;;;;;25.50;27.10;98092.25;4902060;29;20209;-55
2022/01/22 10:43:58;;;;;;;11.73;3.10;;;;;;;25.50;27.12;98082.63;4903518;29;20027;-56
2022/01/22 10:46:42;;;;;;;16.58;2.80;;;;;;;25.52;27.00;98088.69;4897066;29;20067;-54
2022/01/22 10:49:14;;;;;;;12.48;3.10;;;;;;;25.52;27.00;98079.97;4898148;29;20859;-57
2022/01/22 10:52:04;;;;;;;9.07;2.80;;;;;;;25.56;27.16;98073.75;4903411;29;20107;-56
2022/01/22 10:54:34;;;;;;;10.30;3.10;;;;;;;25.58;26.98;98074.53;4897131;29;20119;-54
2022/01/22 10:57:10;;;;;;;12.90;3.05;;;;;;;25.59;27.15;98072.78;4897635;29;20072;-55
2022/01/22 10:59:36;;;;;;;10.05;2.58;;;;;;;25.61;27.15;98069.22;4901690;29;20763;-56
2022/01/22 11:02:03;;;;;;;10.13;3.10;;;;;;;25.62;27.08;98070.06;4903198;29;20044;-54
2022/01/22 11:04:49;;;;;;;15.02;3.20;;;;;;;25.63;27.24;98061.28;4907230;29;20040;-55
2022/01/22 11:07:18;;;;;;;9.38;2.97;;;;;;;25.64;27.29;98063.00;4905689;29;20044;-55
2022/01/22 11:09:44;;;;;;;12.65;2.92;;;;;;;25.65;27.13;98062.94;4903611;29;20032;-55
2022/01/22 11:12:10;;;;;;;9.68;2.80;;;;;;;25.66;27.18;98062.03;4899030;29;20031;-56
2022/01/22 11:14:37;;;;;;;7.05;2.50;;;;;;;25.68;27.19;98062.88;4917403;29;20160;-55
2022/01/22 11:17:03;;;;;;;10.43;2.95;;;;;;;25.69;27.25;98061.06;4898932;29;20078;-56
2022/01/22 11:19:33;;;;;;;7.13;2.58;;;;;;;25.70;27.31;98052.28;4898912;29;20044;-56
2022/01/22 11:22:10;;;;;;;11.05;3.10;;;;;;;25.71;27.23;98054.03;4904723;29;20027;-55
2022/01/22 11:24:43;;;;;;;7.78;2.60;;;;;;;25.72;27.34;98055.72;4892951;29;20035;-55
2022/01/22 11:27:16;;;;;;;10.20;2.70;;;;;;;25.73;27.31;98057.44;4890740;29;20036;-58
2022/01/22 11:29:53;;;;;;;10.00;2.60;;;;;;;25.74;27.41;98056.53;4887372;29;20114;-56
2022/01/22 11:32:36;;;;;;;10.38;2.70;;;;;;;25.73;27.28;98046.94;4892463;29;20139;-57
2022/01/22 11:35:03;;;;;;;6.45;2.35;;;;;;;25.74;27.36;98056.53;4914364;29;20031;-57
2022/01/22 11:37:32;;;;;;;7.07;2.20;;;;;;;25.74;27.42;98059.16;4897569;29;20075;-56
2022/01/22 11:40:15;;;;;;;6.68;2.28;;;;;;;25.75;27.41;98063.53;4912314;29;20054;-56
2022/01/22 11:42:56;;;;;;;8.52;2.33;;;;;;;25.75;27.46;98060.88;4908426;29;20023;-54
2022/01/22 11:45:44;;;;;;;9.15;2.28;;;;;;;25.76;27.34;98056.47;4890726;29;20662;-56
2022/01/22 11:48:13;;;;;;;11.40;2.30;;;;;;;25.74;27.25;98058.31;4896992;29;20518;-57
2022/01/22 11:50:40;;;;;;;8.55;2.40;;;;;;;25.75;27.37;98060.88;4896253;29;20058;-55
2022/01/22 11:53:24;;;;;;;6.82;2.15;;;;;;;25.75;27.31;98055.66;4889032;28;21751;-59
2022/01/22 11:56:12;;;;;;;6.90;2.10;;;;;;;25.76;27.38;98057.34;4898444;29;20052;-54
2022/01/22 11:58:56;;;;;;;4.47;2.30;;;;;;;25.77;27.52;98058.19;4901004;29;21057;-56
2022/01/22 12:01:41;;;;;;;6.95;2.17;;;;;;;25.78;27.56;98062.56;4900437;29;20031;-57
2022/01/22 12:04:08;;;;;;;7.20;2.17;;;;;;;25.79;27.41;98053.75;4902883;29;20436;-56
2022/01/22 12:06:33;;;;;;;5.40;2.00;;;;;;;25.80;27.50;98055.47;4899687;29;20027;-58
2022/01/22 12:09:14;;;;;;;6.05;2.10;;;;;;;25.80;27.59;98047.59;4885318;29;20111;-55
2022/01/22 12:14:50;;;;;;;11.10;2.25;;;;;;;25.82;27.58;98037.91;4895160;29;20047;-55
2022/01/22 12:17:34;;;;;;;4.72;1.95;;;;;;;25.82;27.52;98041.38;4889698;29;20032;-56
2022/01/22 12:22:34;;;;;;;4.78;2.00;;;;;;;25.83;27.71;98037.84;4891308;29;20031;-56
2022/01/22 12:25:01;;;;;;;6.63;1.90;;;;;;;25.85;27.59;98044.84;4891229;29;20036;-57
2022/01/22 12:27:44;;;;;;;5.80;2.10;;;;;;;25.85;27.63;98045.66;4915628;29;20119;-56
2022/01/22 12:30:10;;;;;;;4.68;2.08;;;;;;;25.88;27.68;98047.31;4896708;29;20044;-57
2022/01/22 12:32:48;;;;;;;5.60;1.70;;;;;;;25.88;27.70;98050.81;4892541;29;20036;-57
2022/01/22 12:35:18;;;;;;;3.85;1.85;;;;;;;25.87;27.73;98049.13;4892893;29;20482;-56
2022/01/22 12:37:49;;;;;;;5.38;1.83;;;;;;;25.89;27.65;98051.69;4911328;29;20031;-56
2022/01/22 12:40:27;;;;;;;3.97;1.75;;;;;;;25.89;27.77;98041.19;4911593;29;20084;-57
2022/01/22 12:43:04;;;;;;;4.75;1.88;;;;;;;25.90;27.77;98043.75;4899436;29;20058;-55
2022/01/22 12:45:30;;;;;;;5.53;2.17;;;;;;;25.92;27.90;98046.31;4902544;29;20028;-56
2022/01/22 12:47:56;;;;;;;3.88;1.70;;;;;;;25.90;27.88;98035.03;4905076;29;20034;-57
2022/01/22 12:50:26;;;;;;;5.40;1.65;;;;;;;25.90;27.93;98043.75;4902873;29;20078;-57
2022/01/22 12:52:52;;;;;;;6.25;2.00;;;;;;;25.90;27.75;98040.28;4898609;29;20032;-56
2022/01/22 12:55:24;;;;;;;4.50;1.70;;;;;;;25.90;27.83;98040.28;4900654;29;20876;-57
2022/01/22 12:57:50;;;;;;;4.00;1.65;;;;;;;25.89;27.82;98046.44;4900293;29;20103;-57
2022/01/22 13:00:18;;;;;;;3.80;1.88;;;;;;;25.90;27.85;98053.41;4901912;29;20031;-56
2022/01/22 13:02:54;;;;;;;4.63;1.67;;;;;;;25.88;27.77;98050.81;4900136;29;20134;-56
2022/01/22 13:05:20;;;;;;;4.50;2.10;;;;;;;25.89;27.89;98043.81;4900257;29;20043;-57
2022/01/22 13:07:55;;;;;;;5.47;1.80;;;;;;;25.91;27.95;98044.63;4917435;29;20536;-55
2022/01/22 13:10:31;;;;;;;6.30;1.50;;;;;;;25.91;27.98;98039.34;4898169;29;20142;-57
2022/01/22 13:12:57;;;;;;;3.28;1.77;;;;;;;25.92;27.98;98046.31;4896632;29;20054;-57
2022/01/22 13:15:22;;;;;;;3.45;1.40;;;;;;;25.93;27.96;98037.56;4916251;29;20028;-55
2022/01/22 13:17:57;;;;;;;3.92;1.48;;;;;;;25.94;27.95;98037.47;4898708;29;20605;-57